createdAt,value
2023-05-12T00:00:13.185Z,14.24
2023-05-12T00:02:42.005Z,14.21
2023-05-12T00:05:09.257Z,14.23
2023-05-12T00:07:36.394Z,14.21
2023-05-12T00:10:03.270Z,14.19
2023-05-12T00:12:29.931Z,14.20
2023-05-12T00:14:56.679Z,14.19
2023-05-12T00:17:23.489Z,14.15
2023-05-12T00:19:50.280Z,14.12
2023-05-12T00:22:17.278Z,14.13
2023-05-12T00:24:43.975Z,14.16
2023-05-12T00:27:10.646Z,14.19
2023-05-12T00:29:37.362Z,14.19
2023-05-12T00:32:04.220Z,14.19
2023-05-12T00:34:30.948Z,14.24
2023-05-12T00:36:57.533Z,14.32
2023-05-12T00:39:24.111Z,14.38
2023-05-12T00:42:00.331Z,14.44
2023-05-12T00:44:26.970Z,14.49
2023-05-12T00:46:54.515Z,14.52
2023-05-12T00:49:21.724Z,14.55
2023-05-12T00:51:48.777Z,14.58
2023-05-12T00:54:16.932Z,14.60
2023-05-12T00:56:43.716Z,14.62
2023-05-12T00:59:10.722Z,14.62
2023-05-12T01:01:40.748Z,14.62
2023-05-12T01:04:08.204Z,14.61
2023-05-12T01:06:48.488Z,14.60
2023-05-12T01:09:15.989Z,14.60
2023-05-12T01:11:43.164Z,14.61
2023-05-12T01:14:09.831Z,14.61
2023-05-12T01:16:46.273Z,14.62
2023-05-12T01:19:30.681Z,14.62
2023-05-12T01:21:59.077Z,14.58
2023-05-12T01:24:29.359Z,14.53
2023-05-12T01:26:56.078Z,14.40
2023-05-12T01:29:23.950Z,14.31
2023-05-12T01:31:51.140Z,14.24
2023-05-12T01:34:21.126Z,14.22
2023-05-12T01:36:50.811Z,14.23
2023-05-12T01:39:17.412Z,14.20
2023-05-12T01:41:44.205Z,14.09
2023-05-12T01:44:10.972Z,14.01
2023-05-12T01:46:38.736Z,14.02
2023-05-12T01:49:05.611Z,14.05
2023-05-12T01:51:32.559Z,14.06
2023-05-12T01:53:59.563Z,14.07
2023-05-12T01:56:29.566Z,14.08
2023-05-12T01:58:56.265Z,14.09
2023-05-12T02:01:25.574Z,14.13
2023-05-12T02:03:52.308Z,14.16
2023-05-12T02:06:19.867Z,14.15
2023-05-12T02:08:46.627Z,14.14
2023-05-12T02:11:13.681Z,14.16
2023-05-12T02:13:40.393Z,14.18
2023-05-12T02:16:07.899Z,14.20
2023-05-12T02:18:34.806Z,14.22
2023-05-12T02:21:01.640Z,14.22
2023-05-12T02:23:29.249Z,14.23
2023-05-12T02:25:56.005Z,14.24
2023-05-12T02:28:22.962Z,14.27
2023-05-12T02:30:51.135Z,14.28
2023-05-12T02:33:19.544Z,14.30
2023-05-12T02:35:47.335Z,14.31
2023-05-12T02:38:14.460Z,14.33
2023-05-12T02:40:41.258Z,14.34
2023-05-12T02:43:08.125Z,14.35
2023-05-12T02:45:36.413Z,14.33
2023-05-12T02:48:03.478Z,14.31
2023-05-12T02:50:30.553Z,14.31
2023-05-12T02:52:57.334Z,14.33
2023-05-12T02:55:23.995Z,14.31
2023-05-12T02:57:50.645Z,14.21
2023-05-12T03:00:17.563Z,14.19
2023-05-12T03:02:44.461Z,14.20
2023-05-12T03:05:11.244Z,14.20
2023-05-12T03:07:38.241Z,14.22
2023-05-12T03:10:05.702Z,14.22
2023-05-12T03:12:32.486Z,14.16
2023-05-12T03:14:59.586Z,14.15
2023-05-12T03:17:26.490Z,14.18
2023-05-12T03:19:53.165Z,14.19
2023-05-12T03:22:19.998Z,14.20
2023-05-12T03:24:46.752Z,14.20
2023-05-12T03:27:13.426Z,14.22
2023-05-12T03:29:40.125Z,14.22
2023-05-12T03:32:07.234Z,14.23
2023-05-12T03:34:34.428Z,14.25
2023-05-12T03:37:01.686Z,14.28
2023-05-12T03:39:28.425Z,14.29
2023-05-12T03:41:55.153Z,14.28
2023-05-12T03:44:21.798Z,14.26
2023-05-12T03:46:48.483Z,14.24
2023-05-12T03:49:15.165Z,14.17
2023-05-12T03:51:41.805Z,14.08
2023-05-12T03:54:08.664Z,14.04
2023-05-12T03:56:35.872Z,14.06
2023-05-12T03:59:02.527Z,14.06
2023-05-12T04:01:29.207Z,14.03
2023-05-12T04:03:56.007Z,14.01
2023-05-12T04:06:22.776Z,13.96
2023-05-12T04:08:49.415Z,13.90
2023-05-12T04:11:16.152Z,13.86
2023-05-12T04:13:42.827Z,13.82
2023-05-12T04:16:09.948Z,13.83
2023-05-12T04:18:36.821Z,13.84
2023-05-12T04:21:04.060Z,13.87
2023-05-12T04:23:30.804Z,13.91
2023-05-12T04:25:57.707Z,13.94
2023-05-12T04:28:24.377Z,13.98
2023-05-12T04:30:51.146Z,14.01
2023-05-12T04:33:18.029Z,14.02
2023-05-12T04:35:44.727Z,13.98
2023-05-12T04:38:13.734Z,13.93
2023-05-12T04:40:41.126Z,13.92
2023-05-12T04:43:07.861Z,13.93
2023-05-12T04:45:34.578Z,13.86
2023-05-12T04:48:01.540Z,13.79
2023-05-12T04:50:28.312Z,13.71
2023-05-12T04:52:55.034Z,13.68
2023-05-12T04:55:22.293Z,13.71
2023-05-12T04:57:49.428Z,13.74
2023-05-12T05:00:16.297Z,13.79
2023-05-12T05:02:44.677Z,13.84
2023-05-12T05:05:12.159Z,13.85
2023-05-12T05:07:39.718Z,13.83
2023-05-12T05:10:07.373Z,13.84
2023-05-12T05:12:34.455Z,13.88
2023-05-12T05:15:01.828Z,13.92
2023-05-12T05:17:28.992Z,13.95
2023-05-12T05:19:59.223Z,14.01
2023-05-12T05:22:29.140Z,14.06
2023-05-12T05:24:56.382Z,14.10
2023-05-12T05:27:23.175Z,14.09
2023-05-12T05:29:50.667Z,14.10
2023-05-12T05:32:17.410Z,14.14
2023-05-12T05:34:44.707Z,14.17
2023-05-12T05:37:11.368Z,14.21
2023-05-12T05:39:38.152Z,14.26
2023-05-12T05:42:05.127Z,14.32
2023-05-12T05:44:31.735Z,14.39
2023-05-12T05:46:58.800Z,14.44
2023-05-12T05:49:26.180Z,14.50
2023-05-12T05:51:53.877Z,14.54
2023-05-12T05:54:20.544Z,14.57
2023-05-12T05:56:47.313Z,14.59
2023-05-12T05:59:15.707Z,14.62
2023-05-12T06:01:42.522Z,14.64
2023-05-12T06:04:09.467Z,14.67
2023-05-12T06:06:36.197Z,14.70
2023-05-12T06:09:02.839Z,14.73
2023-05-12T06:11:29.510Z,14.75
2023-05-12T06:13:56.194Z,14.77
2023-05-12T06:16:22.905Z,14.77
2023-05-12T06:18:49.726Z,14.78
2023-05-12T06:21:16.429Z,14.81
2023-05-12T06:23:43.074Z,14.82
2023-05-12T06:26:09.718Z,14.85
2023-05-12T06:28:36.408Z,14.89
2023-05-12T06:31:03.070Z,14.95
2023-05-12T06:33:29.758Z,14.99
2023-05-12T06:35:56.498Z,15.02
2023-05-12T06:38:23.080Z,15.03
2023-05-12T06:40:49.712Z,15.03
2023-05-12T06:43:16.341Z,15.04
2023-05-12T06:45:44.807Z,15.08
2023-05-12T06:48:11.997Z,15.09
2023-05-12T06:50:38.771Z,15.06
2023-05-12T06:53:06.443Z,15.04
2023-05-12T06:55:33.036Z,14.99
2023-05-12T06:57:59.812Z,14.92
2023-05-12T07:00:26.872Z,14.86
2023-05-12T07:02:53.613Z,14.79
2023-05-12T07:05:21.208Z,14.79
2023-05-12T07:07:48.137Z,14.78
2023-05-12T07:10:15.034Z,14.78
2023-05-12T07:12:41.817Z,14.78
2023-05-12T07:15:09.795Z,14.77
2023-05-12T07:17:36.698Z,14.74
2023-05-12T07:20:05.025Z,14.75
2023-05-12T07:22:32.770Z,14.80
2023-05-12T07:24:59.602Z,14.85
2023-05-12T07:27:26.992Z,14.84
2023-05-12T07:29:53.713Z,14.76
2023-05-12T07:32:20.525Z,14.76
2023-05-12T07:34:47.211Z,14.84
2023-05-12T07:37:13.817Z,14.88
2023-05-12T07:39:40.415Z,14.90
2023-05-12T07:42:07.143Z,14.94
2023-05-12T07:44:33.743Z,15.03
2023-05-12T07:47:00.407Z,15.10
2023-05-12T07:49:27.157Z,15.15
2023-05-12T07:51:53.830Z,15.21
2023-05-12T07:54:20.482Z,15.26
2023-05-12T07:56:47.156Z,15.23
2023-05-12T07:59:14.498Z,15.17
2023-05-12T08:01:41.648Z,15.15
2023-05-12T08:04:08.980Z,15.20
2023-05-12T08:06:35.758Z,15.29
2023-05-12T08:09:02.504Z,15.36
2023-05-12T08:11:29.098Z,15.43
2023-05-12T08:13:55.747Z,15.50
2023-05-12T08:16:23.049Z,15.59
2023-05-12T08:18:49.827Z,15.63
2023-05-12T08:21:16.493Z,15.64
2023-05-12T08:23:43.807Z,15.63
2023-05-12T08:26:10.512Z,15.60
2023-05-12T08:28:37.434Z,15.57
2023-05-12T08:31:05.056Z,15.54
2023-05-12T08:33:31.902Z,15.53
2023-05-12T08:35:58.638Z,15.57
2023-05-12T08:38:25.321Z,15.60
2023-05-12T08:41:19.995Z,15.59
2023-05-12T08:43:51.142Z,15.60
2023-05-12T08:46:18.221Z,15.50
2023-05-12T08:48:50.675Z,15.44
2023-05-12T08:51:19.276Z,15.42
2023-05-12T08:53:49.293Z,15.45
2023-05-12T08:58:52.030Z,15.54
2023-05-12T09:01:18.823Z,15.62
2023-05-12T09:03:45.724Z,15.69
2023-05-12T09:06:13.358Z,15.78
2023-05-12T09:08:40.765Z,15.92
2023-05-12T09:11:12.035Z,16.08
2023-05-12T09:13:46.246Z,16.15
2023-05-12T09:16:14.960Z,16.23
2023-05-12T09:19:01.246Z,16.42
2023-05-12T09:21:29.044Z,16.61
2023-05-12T09:24:01.044Z,16.64
2023-05-12T09:26:28.731Z,16.61
2023-05-12T09:29:08.820Z,16.66
2023-05-12T09:31:36.158Z,16.69
2023-05-12T09:34:08.323Z,16.69
2023-05-12T09:36:35.988Z,16.72
2023-05-12T09:39:05.244Z,16.89
2023-05-12T09:41:36.118Z,17.05
2023-05-12T09:44:03.562Z,17.13
2023-05-12T09:46:30.361Z,17.18
2023-05-12T09:48:57.890Z,17.23
2023-05-12T09:51:26.602Z,17.30
2023-05-12T09:53:53.759Z,17.40
2023-05-12T09:56:21.527Z,17.38
2023-05-12T09:58:49.730Z,17.32
2023-05-12T10:01:23.137Z,17.22
2023-05-12T10:03:56.444Z,17.10
2023-05-12T10:06:28.529Z,17.00
2023-05-12T10:09:05.465Z,16.90
2023-05-12T10:11:32.515Z,16.76
2023-05-12T10:14:00.093Z,16.70
2023-05-12T10:16:28.966Z,16.68
2023-05-12T10:18:56.877Z,16.69
2023-05-12T10:21:26.179Z,16.76
2023-05-12T10:23:54.601Z,16.91
2023-05-12T10:26:22.076Z,17.05
2023-05-12T10:28:50.063Z,17.17
2023-05-12T10:31:17.369Z,17.35
2023-05-12T10:33:44.155Z,17.50
2023-05-12T10:36:19.277Z,17.62
2023-05-12T10:38:49.856Z,17.61
2023-05-12T10:41:19.430Z,17.60
2023-05-12T10:43:49.754Z,17.54
2023-05-12T10:46:21.282Z,17.55
2023-05-12T10:49:00.284Z,17.56
2023-05-12T10:51:31.048Z,17.63
2023-05-12T10:54:11.010Z,17.69
2023-05-12T10:56:38.450Z,17.72
2023-05-12T10:59:09.497Z,17.72
2023-05-12T11:01:37.717Z,17.72
2023-05-12T11:04:15.789Z,17.74
2023-05-12T11:06:45.209Z,17.80
2023-05-12T11:09:13.235Z,17.81
2023-05-12T11:11:40.504Z,17.80
2023-05-12T11:14:08.375Z,17.76
2023-05-12T11:16:42.182Z,17.73
2023-05-12T11:19:09.438Z,17.67
2023-05-12T11:21:37.352Z,17.63
2023-05-12T11:24:04.820Z,17.55
2023-05-12T11:26:31.821Z,17.46
2023-05-12T11:28:58.704Z,17.34
2023-05-12T11:31:25.803Z,17.24
2023-05-12T11:34:12.652Z,17.20
2023-05-12T11:36:44.308Z,17.18
2023-05-12T11:39:19.379Z,17.21
2023-05-12T11:41:46.023Z,17.27
2023-05-12T11:44:24.632Z,17.29
2023-05-12T11:46:59.162Z,17.34
2023-05-12T11:49:27.329Z,17.37
2023-05-12T11:51:55.618Z,17.35
2023-05-12T11:54:23.161Z,17.37
2023-05-12T11:56:51.455Z,17.35
2023-05-12T11:59:29.870Z,17.40
2023-05-12T12:01:58.593Z,17.51
2023-05-12T12:04:34.502Z,17.53
2023-05-12T12:07:01.763Z,17.57
2023-05-12T12:09:40.766Z,17.57
2023-05-12T12:12:11.733Z,17.62
2023-05-12T12:14:38.474Z,17.69
2023-05-12T12:17:05.745Z,17.65
2023-05-12T12:19:32.400Z,17.64
2023-05-12T12:21:59.337Z,17.65
2023-05-12T12:24:26.287Z,17.61
2023-05-12T12:26:52.918Z,17.69
2023-05-12T12:29:19.616Z,17.71
2023-05-12T12:31:46.403Z,17.69
2023-05-12T12:34:13.166Z,17.68
2023-05-12T12:36:39.779Z,17.62
2023-05-12T12:39:06.928Z,17.63
2023-05-12T12:41:33.603Z,17.65
2023-05-12T12:44:00.298Z,17.63
2023-05-12T12:46:26.997Z,17.59
2023-05-12T12:48:53.992Z,17.52
2023-05-12T12:51:21.248Z,17.46
2023-05-12T12:53:47.896Z,17.40
2023-05-12T12:56:15.552Z,17.33
2023-05-12T12:58:42.293Z,17.30
2023-05-12T13:01:09.084Z,17.28
2023-05-12T13:03:35.959Z,17.23
2023-05-12T13:06:02.725Z,17.21
2023-05-12T13:08:29.703Z,17.12
2023-05-12T13:10:56.620Z,17.12
2023-05-12T13:13:24.613Z,17.16
2023-05-12T13:15:53.423Z,17.17
2023-05-12T13:18:21.071Z,17.21
2023-05-12T13:20:48.040Z,17.28
2023-05-12T13:23:15.048Z,17.40
2023-05-12T13:25:41.651Z,17.67
2023-05-12T13:28:08.761Z,17.93
2023-05-12T13:30:35.536Z,18.15
2023-05-12T13:33:05.089Z,18.42
2023-05-12T13:35:32.607Z,18.89
2023-05-12T13:37:59.247Z,19.23
2023-05-12T13:40:26.029Z,19.42
2023-05-12T13:42:52.614Z,19.49
2023-05-12T13:45:19.724Z,19.77
2023-05-12T13:47:46.731Z,20.16
2023-05-12T13:50:13.364Z,20.42
2023-05-12T13:52:40.042Z,20.54
2023-05-12T13:55:07.907Z,20.57
2023-05-12T13:57:34.536Z,20.68
2023-05-12T14:00:02.256Z,20.76
2023-05-12T14:02:29.190Z,20.86
2023-05-12T14:04:56.689Z,21.02
2023-05-12T14:07:23.472Z,20.96
2023-05-12T14:09:50.099Z,20.87
2023-05-12T14:12:17.257Z,20.89
2023-05-12T14:14:49.616Z,20.91
2023-05-12T14:17:17.500Z,20.90
2023-05-12T14:19:45.163Z,20.89
2023-05-12T14:22:22.415Z,20.93
2023-05-12T14:24:53.088Z,20.98
2023-05-12T14:27:20.039Z,21.02
2023-05-12T14:29:46.674Z,21.11
2023-05-12T14:32:18.268Z,21.22
2023-05-12T14:34:44.927Z,21.21
2023-05-12T14:37:12.226Z,21.18
2023-05-12T14:39:38.879Z,21.20
2023-05-12T14:42:06.174Z,21.18
2023-05-12T14:44:32.775Z,21.21
2023-05-12T14:46:59.587Z,21.05
2023-05-12T14:49:26.250Z,20.96
2023-05-12T14:51:52.940Z,20.88
2023-05-12T14:54:25.729Z,20.72
2023-05-12T14:56:53.140Z,20.63
2023-05-12T14:59:19.905Z,20.57
2023-05-12T15:01:46.831Z,20.60
2023-05-12T15:04:13.543Z,20.62
2023-05-12T15:06:40.307Z,20.58
2023-05-12T15:09:07.574Z,20.54
2023-05-12T15:11:34.163Z,20.57
2023-05-12T15:14:00.833Z,20.60
2023-05-12T15:16:28.199Z,20.65
2023-05-12T15:18:55.009Z,20.65
2023-05-12T15:21:21.694Z,20.65
2023-05-12T15:23:48.640Z,20.56
2023-05-12T15:28:47.950Z,20.21
2023-05-12T15:31:15.157Z,20.04
2023-05-12T15:33:41.961Z,19.87
2023-05-12T15:36:11.253Z,19.80
2023-05-12T15:38:38.284Z,19.73
2023-05-12T15:41:05.545Z,19.63
2023-05-12T15:43:32.253Z,19.50
2023-05-12T15:45:58.990Z,19.37
2023-05-12T15:48:25.723Z,19.25
2023-05-12T15:50:52.420Z,19.17
2023-05-12T15:53:18.998Z,19.13
2023-05-12T15:55:45.619Z,19.08
2023-05-12T15:58:12.551Z,19.06
2023-05-12T16:00:39.666Z,19.08
2023-05-12T16:03:06.528Z,19.04
2023-05-12T16:05:37.730Z,18.99
2023-05-12T16:08:04.337Z,18.95
2023-05-12T16:10:31.080Z,18.90
2023-05-12T16:12:57.647Z,18.87
2023-05-12T16:15:24.344Z,18.82
2023-05-12T16:17:50.972Z,18.79
2023-05-12T16:20:17.656Z,18.79
2023-05-12T16:22:44.303Z,18.77
2023-05-12T16:25:11.419Z,18.72
2023-05-12T16:27:38.947Z,18.70
2023-05-12T16:30:07.909Z,18.65
2023-05-12T16:32:34.585Z,18.64
2023-05-12T16:35:01.458Z,18.64
2023-05-12T16:37:28.507Z,18.60
2023-05-12T16:39:55.087Z,18.57
2023-05-12T16:42:21.787Z,18.53
2023-05-12T16:44:48.425Z,18.47
2023-05-12T16:47:15.126Z,18.43
2023-05-12T16:49:41.778Z,18.41
2023-05-12T16:52:09.495Z,18.40
2023-05-12T16:54:37.245Z,18.37
2023-05-12T16:57:04.006Z,18.33
2023-05-12T16:59:32.646Z,18.26
2023-05-12T17:02:00.378Z,18.23
2023-05-12T17:04:27.583Z,18.19
2023-05-12T17:06:54.698Z,18.14
2023-05-12T17:09:23.318Z,18.14
2023-05-12T17:11:50.293Z,18.13
2023-05-12T17:14:19.011Z,18.11
2023-05-12T17:16:46.007Z,18.08
2023-05-12T17:19:14.665Z,18.06
2023-05-12T17:21:42.406Z,18.06
2023-05-12T17:24:09.579Z,18.04
2023-05-12T17:26:36.355Z,18.00
2023-05-12T17:29:03.270Z,17.93
2023-05-12T17:31:29.847Z,17.86
2023-05-12T17:33:56.886Z,17.81
2023-05-12T17:36:23.832Z,17.77
2023-05-12T17:38:51.890Z,17.73
2023-05-12T17:41:19.384Z,17.69
2023-05-12T17:43:46.463Z,17.62
2023-05-12T17:46:13.559Z,17.56
2023-05-12T17:48:40.219Z,17.49
2023-05-12T17:51:07.053Z,17.38
2023-05-12T17:53:35.094Z,17.23
2023-05-12T17:56:01.962Z,17.11
2023-05-12T17:58:28.751Z,17.06
2023-05-12T18:00:55.591Z,17.02
2023-05-12T18:03:25.284Z,17.00
2023-05-12T18:05:54.194Z,16.96
2023-05-12T18:08:21.783Z,16.89
2023-05-12T18:10:49.014Z,16.80
2023-05-12T18:13:16.261Z,16.76
2023-05-12T18:15:43.508Z,16.76
2023-05-12T18:18:10.885Z,16.76
2023-05-12T18:20:37.916Z,16.77
2023-05-12T18:23:04.747Z,16.76
2023-05-12T18:25:31.485Z,16.74
2023-05-12T18:27:58.126Z,16.71
2023-05-12T18:30:24.978Z,16.66
2023-05-12T18:32:52.050Z,16.63
2023-05-12T18:35:19.156Z,16.60
2023-05-12T18:37:46.217Z,16.58
2023-05-12T18:40:13.270Z,16.57
2023-05-12T18:42:40.112Z,16.57
2023-05-12T18:45:07.468Z,16.58
2023-05-12T18:47:34.583Z,16.57
2023-05-12T18:50:01.580Z,16.57
2023-05-12T18:52:28.413Z,16.58
2023-05-12T18:54:56.793Z,16.59
2023-05-12T18:57:23.533Z,16.60
2023-05-12T18:59:50.230Z,16.62
2023-05-12T19:02:17.571Z,16.63
2023-05-12T19:04:44.776Z,16.63
2023-05-12T19:07:15.440Z,16.63
2023-05-12T19:09:43.365Z,16.62
2023-05-12T19:12:11.784Z,16.62
2023-05-12T19:14:39.184Z,16.58
2023-05-12T19:17:09.092Z,16.57
2023-05-12T19:19:35.788Z,16.56
2023-05-12T19:22:04.324Z,16.56
2023-05-12T19:24:31.178Z,16.57
2023-05-12T19:26:58.064Z,16.54
2023-05-12T19:29:24.891Z,16.51
2023-05-12T19:31:52.972Z,16.50
2023-05-12T19:34:20.607Z,16.47
2023-05-12T19:36:47.498Z,16.40
2023-05-12T19:39:14.128Z,16.34
2023-05-12T19:41:41.139Z,16.32
2023-05-12T19:44:07.911Z,16.27
2023-05-12T19:46:34.622Z,16.21
2023-05-12T19:49:01.220Z,16.15
2023-05-12T19:51:28.328Z,16.09
2023-05-12T19:53:55.097Z,16.03
2023-05-12T19:56:21.705Z,15.99
2023-05-12T19:58:48.345Z,15.96
2023-05-12T20:01:15.256Z,15.95
2023-05-12T20:03:42.112Z,15.91
2023-05-12T20:06:08.911Z,15.86
2023-05-12T20:08:35.651Z,15.83
2023-05-12T20:11:02.285Z,15.83
2023-05-12T20:13:28.968Z,15.80
2023-05-12T20:15:55.643Z,15.76
2023-05-12T20:18:23.762Z,15.76
2023-05-12T20:20:51.075Z,15.78
2023-05-12T20:23:17.688Z,15.79
2023-05-12T20:25:44.312Z,15.81
2023-05-12T20:28:11.763Z,15.78
2023-05-12T20:30:38.627Z,15.73
2023-05-12T20:33:05.688Z,15.70
2023-05-12T20:35:32.578Z,15.68
2023-05-12T20:37:59.484Z,15.60
2023-05-12T20:40:26.186Z,15.53
2023-05-12T20:42:52.880Z,15.45
2023-05-12T20:45:20.209Z,15.38
2023-05-12T20:47:47.335Z,15.36
2023-05-12T20:50:13.979Z,15.33
2023-05-12T20:52:42.245Z,15.29
2023-05-12T20:55:09.806Z,15.26
2023-05-12T20:57:37.925Z,15.27
2023-05-12T21:00:07.496Z,15.26
2023-05-12T21:02:34.145Z,15.27
2023-05-12T21:05:00.964Z,15.25
2023-05-12T21:07:27.538Z,15.26
2023-05-12T21:09:54.113Z,15.29
2023-05-12T21:12:20.731Z,15.34
2023-05-12T21:14:47.383Z,15.41
2023-05-12T21:17:14.122Z,15.46
2023-05-12T21:19:41.704Z,15.47
2023-05-12T21:22:10.616Z,15.44
2023-05-12T21:24:39.392Z,15.43
2023-05-12T21:27:08.195Z,15.44
2023-05-12T21:29:36.498Z,15.46
2023-05-12T21:32:03.316Z,15.47
2023-05-12T21:34:31.267Z,15.49
2023-05-12T21:36:59.770Z,15.49
2023-05-12T21:39:26.608Z,15.48
2023-05-12T21:41:53.671Z,15.48
2023-05-12T21:44:20.319Z,15.48
2023-05-12T21:46:47.060Z,15.48
2023-05-12T21:49:13.930Z,15.46
2023-05-12T21:51:40.636Z,15.45
2023-05-12T21:54:07.549Z,15.42
2023-05-12T21:56:34.524Z,15.38
2023-05-12T21:59:01.651Z,15.32
2023-05-12T22:01:30.026Z,15.30
2023-05-12T22:03:59.878Z,15.32
2023-05-12T22:06:27.021Z,15.30
2023-05-12T22:08:54.319Z,15.26
2023-05-12T22:11:21.719Z,15.22
2023-05-12T22:13:49.098Z,15.16
2023-05-12T22:16:17.529Z,15.07
2023-05-12T22:18:45.566Z,15.00
2023-05-12T22:21:12.917Z,14.94
2023-05-12T22:23:42.524Z,14.90
2023-05-12T22:26:10.254Z,14.84
2023-05-12T22:28:36.905Z,14.79
2023-05-12T22:31:05.026Z,14.71
2023-05-12T22:33:32.592Z,14.66
2023-05-12T22:36:00.247Z,14.65
2023-05-12T22:38:29.818Z,14.67
2023-05-12T22:40:56.576Z,14.74
2023-05-12T22:43:23.210Z,14.83
2023-05-12T22:45:52.051Z,14.89
2023-05-12T22:48:19.609Z,14.96
2023-05-12T22:50:46.327Z,15.01
2023-05-12T22:53:13.001Z,15.05
2023-05-12T22:55:40.397Z,15.07
2023-05-12T22:58:07.169Z,15.12
2023-05-12T23:00:33.774Z,15.16
2023-05-12T23:03:00.610Z,15.19
2023-05-12T23:05:27.294Z,15.22
2023-05-12T23:07:54.418Z,15.25
2023-05-12T23:10:21.440Z,15.28
2023-05-12T23:12:48.202Z,15.30
2023-05-12T23:15:14.886Z,15.30
2023-05-12T23:17:41.552Z,15.28
2023-05-12T23:20:08.914Z,15.28
2023-05-12T23:22:35.806Z,15.29
2023-05-12T23:25:02.805Z,15.29
2023-05-12T23:27:29.492Z,15.19
2023-05-12T23:29:56.093Z,15.10
2023-05-12T23:32:22.804Z,14.97
2023-05-12T23:34:49.488Z,14.86
2023-05-12T23:37:16.279Z,14.75
2023-05-12T23:39:42.994Z,14.71
2023-05-12T23:42:09.753Z,14.70
2023-05-12T23:44:36.479Z,14.70
2023-05-12T23:47:03.542Z,14.74
2023-05-12T23:49:30.134Z,14.80
2023-05-12T23:51:56.703Z,14.86
2023-05-12T23:54:23.426Z,14.91
2023-05-12T23:56:50.606Z,14.94
2023-05-12T23:59:17.256Z,14.97
